sensor_id;sensor_type;location;lat;lon;timestamp;temperature;humidity
15115;DHT22;7658;51.456;7.622;2024-03-02T00:00:06;8.00;99.90
15115;DHT22;7658;51.456;7.622;2024-03-02T00:02:54;8.00;97.50
15115;DHT22;7658;51.456;7.622;2024-03-02T00:05:21;8.10;66.30
15115;DHT22;7658;51.456;7.622;2024-03-02T00:07:54;8.00;50.00
15115;DHT22;7658;51.456;7.622;2024-03-02T00:10:24;8.10;25.80
15115;DHT22;7658;51.456;7.622;2024-03-02T00:12:55;8.10;13.20
15115;DHT22;7658;51.456;7.622;2024-03-02T00:15:47;8.10;22.50
15115;DHT22;7658;51.456;7.622;2024-03-02T00:18:31;8.20;2.20
15115;DHT22;7658;51.456;7.622;2024-03-02T00:20:58;8.20;1.00
15115;DHT22;7658;51.456;7.622;2024-03-02T00:23:27;8.30;1.00
15115;DHT22;7658;51.456;7.622;2024-03-02T00:25:54;8.30;1.00
15115;DHT22;7658;51.456;7.622;2024-03-02T00:28:35;8.30;1.00
15115;DHT22;7658;51.456;7.622;2024-03-02T00:33:42;8.20;1.00
15115;DHT22;7658;51.456;7.622;2024-03-02T00:36:10;8.20;3.40
15115;DHT22;7658;51.456;7.622;2024-03-02T00:38:49;8.10;1.90
15115;DHT22;7658;51.456;7.622;2024-03-02T00:41:27;8.20;1.00
15115;DHT22;7658;51.456;7.622;2024-03-02T00:44:00;8.20;1.00
15115;DHT22;7658;51.456;7.622;2024-03-02T00:46:29;8.20;1.00
15115;DHT22;7658;51.456;7.622;2024-03-02T00:48:57;8.20;1.00
15115;DHT22;7658;51.456;7.622;2024-03-02T00:51:26;8.20;1.00
15115;DHT22;7658;51.456;7.622;2024-03-02T00:53:53;8.20;1.00
15115;DHT22;7658;51.456;7.622;2024-03-02T00:56:22;8.20;1.00
15115;DHT22;7658;51.456;7.622;2024-03-02T00:58:48;8.20;1.00
15115;DHT22;7658;51.456;7.622;2024-03-02T01:01:14;8.20;1.00
15115;DHT22;7658;51.456;7.622;2024-03-02T01:03:42;8.30;1.00
15115;DHT22;7658;51.456;7.622;2024-03-02T01:06:07;8.20;1.00
15115;DHT22;7658;51.456;7.622;2024-03-02T01:08:38;8.30;1.00
15115;DHT22;7658;51.456;7.622;2024-03-02T01:11:04;8.20;1.00
15115;DHT22;7658;51.456;7.622;2024-03-02T01:13:30;8.30;1.00
15115;DHT22;7658;51.456;7.622;2024-03-02T01:15:56;8.30;1.00
15115;DHT22;7658;51.456;7.622;2024-03-02T01:18:22;8.30;1.00
15115;DHT22;7658;51.456;7.622;2024-03-02T01:20:49;8.30;1.00
15115;DHT22;7658;51.456;7.622;2024-03-02T01:23:20;8.30;1.00
15115;DHT22;7658;51.456;7.622;2024-03-02T01:25:47;8.30;1.00
15115;DHT22;7658;51.456;7.622;2024-03-02T01:28:13;8.30;1.00
15115;DHT22;7658;51.456;7.622;2024-03-02T01:30:39;8.20;1.00
15115;DHT22;7658;51.456;7.622;2024-03-02T01:33:05;8.30;1.00
15115;DHT22;7658;51.456;7.622;2024-03-02T01:35:31;8.30;1.00
15115;DHT22;7658;51.456;7.622;2024-03-02T01:37:57;8.30;1.00
15115;DHT22;7658;51.456;7.622;2024-03-02T01:40:23;8.30;1.00
15115;DHT22;7658;51.456;7.622;2024-03-02T01:42:52;8.30;1.00
15115;DHT22;7658;51.456;7.622;2024-03-02T01:45:19;8.30;1.00
15115;DHT22;7658;51.456;7.622;2024-03-02T01:47:45;8.30;1.00
15115;DHT22;7658;51.456;7.622;2024-03-02T01:50:11;8.30;1.00
15115;DHT22;7658;51.456;7.622;2024-03-02T01:52:37;8.30;1.00
15115;DHT22;7658;51.456;7.622;2024-03-02T01:55:03;8.20;1.00
15115;DHT22;7658;51.456;7.622;2024-03-02T01:57:29;8.20;1.00
15115;DHT22;7658;51.456;7.622;2024-03-02T01:59:56;8.30;1.00
15115;DHT22;7658;51.456;7.622;2024-03-02T02:02:21;8.30;1.00
15115;DHT22;7658;51.456;7.622;2024-03-02T02:04:47;8.30;1.00
15115;DHT22;7658;51.456;7.622;2024-03-02T02:07:13;8.30;1.00
15115;DHT22;7658;51.456;7.622;2024-03-02T02:09:42;8.30;1.00
15115;DHT22;7658;51.456;7.622;2024-03-02T02:12:09;8.40;1.00
15115;DHT22;7658;51.456;7.622;2024-03-02T02:14:36;8.40;1.00
15115;DHT22;7658;51.456;7.622;2024-03-02T02:17:02;8.40;1.00
15115;DHT22;7658;51.456;7.622;2024-03-02T02:19:27;8.40;1.00
15115;DHT22;7658;51.456;7.622;2024-03-02T02:21:54;8.50;1.00
15115;DHT22;7658;51.456;7.622;2024-03-02T02:24:20;8.40;1.00
15115;DHT22;7658;51.456;7.622;2024-03-02T02:26:45;8.50;1.00
15115;DHT22;7658;51.456;7.622;2024-03-02T02:29:11;8.50;1.00
15115;DHT22;7658;51.456;7.622;2024-03-02T02:31:38;8.60;1.00
15115;DHT22;7658;51.456;7.622;2024-03-02T02:34:04;8.60;1.00
15115;DHT22;7658;51.456;7.622;2024-03-02T02:36:33;8.50;1.00
15115;DHT22;7658;51.456;7.622;2024-03-02T02:39:03;8.50;1.00
15115;DHT22;7658;51.456;7.622;2024-03-02T02:41:30;8.50;1.00
15115;DHT22;7658;51.456;7.622;2024-03-02T02:43:56;8.50;1.00
15115;DHT22;7658;51.456;7.622;2024-03-02T02:46:22;8.50;1.00
15115;DHT22;7658;51.456;7.622;2024-03-02T02:48:48;8.40;1.00
15115;DHT22;7658;51.456;7.622;2024-03-02T02:51:13;8.40;1.00
15115;DHT22;7658;51.456;7.622;2024-03-02T02:53:39;8.30;1.00
15115;DHT22;7658;51.456;7.622;2024-03-02T02:56:08;8.30;1.00
15115;DHT22;7658;51.456;7.622;2024-03-02T02:58:34;8.30;1.00
15115;DHT22;7658;51.456;7.622;2024-03-02T03:01:00;8.30;1.00
15115;DHT22;7658;51.456;7.622;2024-03-02T03:03:25;8.30;1.00
15115;DHT22;7658;51.456;7.622;2024-03-02T03:05:51;8.20;1.00
15115;DHT22;7658;51.456;7.622;2024-03-02T03:08:17;8.20;1.00
15115;DHT22;7658;51.456;7.622;2024-03-02T03:10:43;8.10;1.00
15115;DHT22;7658;51.456;7.622;2024-03-02T03:13:08;8.20;1.00
15115;DHT22;7658;51.456;7.622;2024-03-02T03:15:35;8.20;1.00
15115;DHT22;7658;51.456;7.622;2024-03-02T03:18:02;8.10;1.00
15115;DHT22;7658;51.456;7.622;2024-03-02T03:20:29;8.10;1.00
15115;DHT22;7658;51.456;7.622;2024-03-02T03:22:56;8.10;1.00
15115;DHT22;7658;51.456;7.622;2024-03-02T03:25:22;8.10;1.00
15115;DHT22;7658;51.456;7.622;2024-03-02T03:27:47;8.10;1.00
15115;DHT22;7658;51.456;7.622;2024-03-02T03:30:13;8.10;1.00
15115;DHT22;7658;51.456;7.622;2024-03-02T03:32:40;8.10;1.00
15115;DHT22;7658;51.456;7.622;2024-03-02T03:35:06;8.10;1.00
15115;DHT22;7658;51.456;7.622;2024-03-02T03:37:32;8.10;1.00
15115;DHT22;7658;51.456;7.622;2024-03-02T03:40:02;8.10;1.00
15115;DHT22;7658;51.456;7.622;2024-03-02T03:42:28;8.00;1.00
15115;DHT22;7658;51.456;7.622;2024-03-02T03:44:54;8.00;1.00
15115;DHT22;7658;51.456;7.622;2024-03-02T03:47:20;8.00;1.00
15115;DHT22;7658;51.456;7.622;2024-03-02T03:49:46;8.00;1.00
15115;DHT22;7658;51.456;7.622;2024-03-02T03:52:12;8.00;1.00
15115;DHT22;7658;51.456;7.622;2024-03-02T03:54:37;8.00;1.00
15115;DHT22;7658;51.456;7.622;2024-03-02T03:57:04;8.10;1.00
15115;DHT22;7658;51.456;7.622;2024-03-02T03:59:30;8.10;1.00
15115;DHT22;7658;51.456;7.622;2024-03-02T04:01:56;8.00;1.00
15115;DHT22;7658;51.456;7.622;2024-03-02T04:04:22;8.00;1.00
15115;DHT22;7658;51.456;7.622;2024-03-02T04:06:48;8.00;1.00
15115;DHT22;7658;51.456;7.622;2024-03-02T04:09:13;7.90;1.00
15115;DHT22;7658;51.456;7.622;2024-03-02T04:11:39;7.90;1.00
15115;DHT22;7658;51.456;7.622;2024-03-02T04:14:05;7.80;1.00
15115;DHT22;7658;51.456;7.622;2024-03-02T04:16:31;7.90;1.00
15115;DHT22;7658;51.456;7.622;2024-03-02T04:18:57;7.90;1.00
15115;DHT22;7658;51.456;7.622;2024-03-02T04:21:23;7.90;1.00
15115;DHT22;7658;51.456;7.622;2024-03-02T04:23:49;7.90;1.00
15115;DHT22;7658;51.456;7.622;2024-03-02T04:26:15;7.90;1.00
15115;DHT22;7658;51.456;7.622;2024-03-02T04:28:45;7.90;1.00
15115;DHT22;7658;51.456;7.622;2024-03-02T04:31:10;7.90;1.00
15115;DHT22;7658;51.456;7.622;2024-03-02T04:33:36;7.90;1.00
15115;DHT22;7658;51.456;7.622;2024-03-02T04:36:02;7.80;1.00
15115;DHT22;7658;51.456;7.622;2024-03-02T04:38:28;7.80;1.00
15115;DHT22;7658;51.456;7.622;2024-03-02T04:40:54;7.80;1.00
15115;DHT22;7658;51.456;7.622;2024-03-02T04:43:20;7.90;1.00
15115;DHT22;7658;51.456;7.622;2024-03-02T04:45:45;7.90;1.00
15115;DHT22;7658;51.456;7.622;2024-03-02T04:48:11;8.00;1.00
15115;DHT22;7658;51.456;7.622;2024-03-02T04:50:38;8.00;1.00
15115;DHT22;7658;51.456;7.622;2024-03-02T04:53:04;8.00;1.00
15115;DHT22;7658;51.456;7.622;2024-03-02T04:55:29;8.00;1.00
15115;DHT22;7658;51.456;7.622;2024-03-02T04:58:01;8.00;1.00
15115;DHT22;7658;51.456;7.622;2024-03-02T05:00:27;8.00;1.00
15115;DHT22;7658;51.456;7.622;2024-03-02T05:02:52;8.00;1.00
15115;DHT22;7658;51.456;7.622;2024-03-02T05:05:18;8.10;1.00
15115;DHT22;7658;51.456;7.622;2024-03-02T05:07:44;8.00;1.00
15115;DHT22;7658;51.456;7.622;2024-03-02T05:10:10;8.00;1.00
15115;DHT22;7658;51.456;7.622;2024-03-02T05:12:37;7.90;1.00
15115;DHT22;7658;51.456;7.622;2024-03-02T05:15:13;7.90;1.00
15115;DHT22;7658;51.456;7.622;2024-03-02T05:17:40;7.80;1.00
15115;DHT22;7658;51.456;7.622;2024-03-02T05:20:09;7.70;1.00
15115;DHT22;7658;51.456;7.622;2024-03-02T05:22:38;7.60;1.00
15115;DHT22;7658;51.456;7.622;2024-03-02T05:25:04;7.70;1.00
15115;DHT22;7658;51.456;7.622;2024-03-02T05:27:31;7.70;1.00
15115;DHT22;7658;51.456;7.622;2024-03-02T05:29:58;7.60;1.00
15115;DHT22;7658;51.456;7.622;2024-03-02T05:32:24;7.80;1.00
15115;DHT22;7658;51.456;7.622;2024-03-02T05:34:50;7.80;1.00
15115;DHT22;7658;51.456;7.622;2024-03-02T05:37:18;7.70;1.00
15115;DHT22;7658;51.456;7.622;2024-03-02T05:39:45;7.80;1.00
15115;DHT22;7658;51.456;7.622;2024-03-02T05:42:11;7.70;1.00
15115;DHT22;7658;51.456;7.622;2024-03-02T05:44:37;7.70;1.00
15115;DHT22;7658;51.456;7.622;2024-03-02T05:47:03;7.70;1.00
15115;DHT22;7658;51.456;7.622;2024-03-02T05:49:29;7.70;1.00
15115;DHT22;7658;51.456;7.622;2024-03-02T05:51:55;7.70;1.00
15115;DHT22;7658;51.456;7.622;2024-03-02T05:54:21;7.60;1.00
15115;DHT22;7658;51.456;7.622;2024-03-02T05:56:47;7.50;1.00
15115;DHT22;7658;51.456;7.622;2024-03-02T05:59:13;7.50;1.00
15115;DHT22;7658;51.456;7.622;2024-03-02T06:01:42;7.40;1.00
15115;DHT22;7658;51.456;7.622;2024-03-02T06:04:09;7.40;1.00
15115;DHT22;7658;51.456;7.622;2024-03-02T06:06:36;7.30;1.00
15115;DHT22;7658;51.456;7.622;2024-03-02T06:09:03;7.30;1.00
15115;DHT22;7658;51.456;7.622;2024-03-02T06:11:37;7.20;1.00
15115;DHT22;7658;51.456;7.622;2024-03-02T06:14:07;7.20;1.00
15115;DHT22;7658;51.456;7.622;2024-03-02T06:16:33;7.20;1.00
15115;DHT22;7658;51.456;7.622;2024-03-02T06:19:00;7.20;1.00
15115;DHT22;7658;51.456;7.622;2024-03-02T06:21:26;7.20;1.00
15115;DHT22;7658;51.456;7.622;2024-03-02T06:23:52;7.20;1.00
15115;DHT22;7658;51.456;7.622;2024-03-02T06:26:18;7.20;1.00
15115;DHT22;7658;51.456;7.622;2024-03-02T06:28:44;7.20;1.00
15115;DHT22;7658;51.456;7.622;2024-03-02T06:31:10;7.20;1.00
15115;DHT22;7658;51.456;7.622;2024-03-02T06:33:36;7.20;1.00
15115;DHT22;7658;51.456;7.622;2024-03-02T06:36:02;7.30;1.00
15115;DHT22;7658;51.456;7.622;2024-03-02T06:38:28;7.30;1.00
15115;DHT22;7658;51.456;7.622;2024-03-02T06:40:54;7.30;1.00
15115;DHT22;7658;51.456;7.622;2024-03-02T06:43:21;7.30;1.00
15115;DHT22;7658;51.456;7.622;2024-03-02T06:45:52;7.20;1.00
15115;DHT22;7658;51.456;7.622;2024-03-02T06:48:19;7.20;1.00
15115;DHT22;7658;51.456;7.622;2024-03-02T06:50:49;7.20;1.00
15115;DHT22;7658;51.456;7.622;2024-03-02T06:53:15;7.10;1.00
15115;DHT22;7658;51.456;7.622;2024-03-02T06:55:45;7.10;8.40
15115;DHT22;7658;51.456;7.622;2024-03-02T06:58:15;7.10;8.50
15115;DHT22;7658;51.456;7.622;2024-03-02T07:00:42;7.10;36.70
15115;DHT22;7658;51.456;7.622;2024-03-02T07:03:08;7.10;27.80
15115;DHT22;7658;51.456;7.622;2024-03-02T07:05:34;7.10;19.70
15115;DHT22;7658;51.456;7.622;2024-03-02T07:07:59;7.20;12.30
15115;DHT22;7658;51.456;7.622;2024-03-02T07:10:27;7.30;1.00
15115;DHT22;7658;51.456;7.622;2024-03-02T07:12:52;7.30;1.00
15115;DHT22;7658;51.456;7.622;2024-03-02T07:15:19;7.30;1.00
15115;DHT22;7658;51.456;7.622;2024-03-02T07:18:04;7.30;1.00
15115;DHT22;7658;51.456;7.622;2024-03-02T07:20:30;7.40;1.00
15115;DHT22;7658;51.456;7.622;2024-03-02T07:22:56;7.50;1.00
15115;DHT22;7658;51.456;7.622;2024-03-02T07:25:22;7.60;1.00
15115;DHT22;7658;51.456;7.622;2024-03-02T07:27:47;7.70;1.00
15115;DHT22;7658;51.456;7.622;2024-03-02T07:30:14;7.80;1.00
15115;DHT22;7658;51.456;7.622;2024-03-02T07:32:41;7.90;1.00
15115;DHT22;7658;51.456;7.622;2024-03-02T07:35:12;8.00;1.00
15115;DHT22;7658;51.456;7.622;2024-03-02T07:37:38;8.10;1.00
15115;DHT22;7658;51.456;7.622;2024-03-02T07:40:04;8.30;1.00
15115;DHT22;7658;51.456;7.622;2024-03-02T07:42:30;8.40;1.00
15115;DHT22;7658;51.456;7.622;2024-03-02T07:44:56;8.40;1.00
15115;DHT22;7658;51.456;7.622;2024-03-02T07:47:22;8.40;1.00
15115;DHT22;7658;51.456;7.622;2024-03-02T07:49:47;8.60;1.00
15115;DHT22;7658;51.456;7.622;2024-03-02T07:52:13;8.90;1.00
15115;DHT22;7658;51.456;7.622;2024-03-02T07:54:39;9.00;1.00
15115;DHT22;7658;51.456;7.622;2024-03-02T07:57:05;8.90;1.00
15115;DHT22;7658;51.456;7.622;2024-03-02T07:59:30;8.80;1.00
15115;DHT22;7658;51.456;7.622;2024-03-02T08:01:56;8.80;1.00
15115;DHT22;7658;51.456;7.622;2024-03-02T08:04:22;8.70;1.00
15115;DHT22;7658;51.456;7.622;2024-03-02T08:06:48;8.70;1.00
15115;DHT22;7658;51.456;7.622;2024-03-02T08:09:14;8.70;1.00
15115;DHT22;7658;51.456;7.622;2024-03-02T08:11:40;8.80;1.00
15115;DHT22;7658;51.456;7.622;2024-03-02T08:14:06;9.20;1.00
15115;DHT22;7658;51.456;7.622;2024-03-02T08:16:31;9.50;1.00
15115;DHT22;7658;51.456;7.622;2024-03-02T08:18:58;9.70;1.00
15115;DHT22;7658;51.456;7.622;2024-03-02T08:21:25;9.90;1.00
15115;DHT22;7658;51.456;7.622;2024-03-02T08:23:51;10.10;1.00
15115;DHT22;7658;51.456;7.622;2024-03-02T08:26:17;10.30;1.00
15115;DHT22;7658;51.456;7.622;2024-03-02T08:28:43;10.90;1.00
15115;DHT22;7658;51.456;7.622;2024-03-02T08:31:09;11.80;1.00
15115;DHT22;7658;51.456;7.622;2024-03-02T08:33:35;12.90;1.00
15115;DHT22;7658;51.456;7.622;2024-03-02T08:36:01;13.70;1.00
15115;DHT22;7658;51.456;7.622;2024-03-02T08:38:27;14.30;1.00
15115;DHT22;7658;51.456;7.622;2024-03-02T08:40:53;14.50;1.00
15115;DHT22;7658;51.456;7.622;2024-03-02T08:43:19;14.70;1.00
15115;DHT22;7658;51.456;7.622;2024-03-02T08:45:45;15.00;1.00
15115;DHT22;7658;51.456;7.622;2024-03-02T08:48:11;15.30;1.00
15115;DHT22;7658;51.456;7.622;2024-03-02T08:50:37;15.00;1.00
15115;DHT22;7658;51.456;7.622;2024-03-02T08:53:06;14.70;1.00
15115;DHT22;7658;51.456;7.622;2024-03-02T08:55:31;14.60;1.00
15115;DHT22;7658;51.456;7.622;2024-03-02T08:57:57;14.50;1.00
15115;DHT22;7658;51.456;7.622;2024-03-02T09:00:23;14.40;1.00
15115;DHT22;7658;51.456;7.622;2024-03-02T09:02:49;14.20;1.00
15115;DHT22;7658;51.456;7.622;2024-03-02T09:05:15;14.20;1.00
15115;DHT22;7658;51.456;7.622;2024-03-02T09:07:41;14.20;1.00
15115;DHT22;7658;51.456;7.622;2024-03-02T09:10:07;14.10;1.00
15115;DHT22;7658;51.456;7.622;2024-03-02T09:12:33;14.30;1.00
15115;DHT22;7658;51.456;7.622;2024-03-02T09:15:03;14.20;1.00
15115;DHT22;7658;51.456;7.622;2024-03-02T09:17:29;14.30;1.00
15115;DHT22;7658;51.456;7.622;2024-03-02T09:19:55;14.20;1.00
15115;DHT22;7658;51.456;7.622;2024-03-02T09:22:21;13.80;1.00
15115;DHT22;7658;51.456;7.622;2024-03-02T09:24:47;13.60;1.00
15115;DHT22;7658;51.456;7.622;2024-03-02T09:27:13;13.50;1.00
15115;DHT22;7658;51.456;7.622;2024-03-02T09:29:39;13.40;1.00
15115;DHT22;7658;51.456;7.622;2024-03-02T09:32:08;13.10;1.00
15115;DHT22;7658;51.456;7.622;2024-03-02T09:34:37;12.90;1.00
15115;DHT22;7658;51.456;7.622;2024-03-02T09:37:03;12.90;1.00
15115;DHT22;7658;51.456;7.622;2024-03-02T09:39:30;13.00;1.00
15115;DHT22;7658;51.456;7.622;2024-03-02T09:41:56;12.90;1.00
15115;DHT22;7658;51.456;7.622;2024-03-02T09:44:23;12.90;1.00
15115;DHT22;7658;51.456;7.622;2024-03-02T09:46:51;12.90;1.00
15115;DHT22;7658;51.456;7.622;2024-03-02T09:49:16;12.90;1.00
15115;DHT22;7658;51.456;7.622;2024-03-02T09:51:49;13.00;1.00
15115;DHT22;7658;51.456;7.622;2024-03-02T09:54:17;13.10;1.00
15115;DHT22;7658;51.456;7.622;2024-03-02T09:56:44;13.00;1.00
15115;DHT22;7658;51.456;7.622;2024-03-02T09:59:10;12.90;1.00
15115;DHT22;7658;51.456;7.622;2024-03-02T10:01:36;12.80;1.00
15115;DHT22;7658;51.456;7.622;2024-03-02T10:04:02;12.80;1.00
15115;DHT22;7658;51.456;7.622;2024-03-02T10:06:29;13.00;1.00
15115;DHT22;7658;51.456;7.622;2024-03-02T10:08:56;13.10;1.00
15115;DHT22;7658;51.456;7.622;2024-03-02T10:11:30;13.30;1.00
15115;DHT22;7658;51.456;7.622;2024-03-02T10:14:10;13.30;1.00
15115;DHT22;7658;51.456;7.622;2024-03-02T10:16:43;13.30;1.00
15115;DHT22;7658;51.456;7.622;2024-03-02T10:19:17;13.40;1.00
15115;DHT22;7658;51.456;7.622;2024-03-02T10:21:44;13.60;1.00
15115;DHT22;7658;51.456;7.622;2024-03-02T10:24:10;13.70;1.00
15115;DHT22;7658;51.456;7.622;2024-03-02T10:26:36;13.70;1.00
15115;DHT22;7658;51.456;7.622;2024-03-02T10:29:03;13.80;1.00
15115;DHT22;7658;51.456;7.622;2024-03-02T10:31:28;13.90;1.00
15115;DHT22;7658;51.456;7.622;2024-03-02T10:33:55;13.90;1.00
15115;DHT22;7658;51.456;7.622;2024-03-02T10:36:21;13.90;1.00
15115;DHT22;7658;51.456;7.622;2024-03-02T10:38:47;14.00;1.00
15115;DHT22;7658;51.456;7.622;2024-03-02T10:41:23;14.00;1.00
15115;DHT22;7658;51.456;7.622;2024-03-02T10:43:52;13.70;1.00
15115;DHT22;7658;51.456;7.622;2024-03-02T10:46:22;13.80;1.00
15115;DHT22;7658;51.456;7.622;2024-03-02T10:48:49;13.60;1.00
15115;DHT22;7658;51.456;7.622;2024-03-02T10:51:15;13.50;1.00
15115;DHT22;7658;51.456;7.622;2024-03-02T10:53:41;13.50;1.00
15115;DHT22;7658;51.456;7.622;2024-03-02T10:56:09;13.40;1.00
15115;DHT22;7658;51.456;7.622;2024-03-02T10:58:35;13.30;1.00
15115;DHT22;7658;51.456;7.622;2024-03-02T11:01:03;13.30;1.00
15115;DHT22;7658;51.456;7.622;2024-03-02T11:03:36;13.40;1.00
15115;DHT22;7658;51.456;7.622;2024-03-02T11:06:07;13.60;1.00
15115;DHT22;7658;51.456;7.622;2024-03-02T11:08:34;13.90;1.00
15115;DHT22;7658;51.456;7.622;2024-03-02T11:11:14;14.00;1.00
15115;DHT22;7658;51.456;7.622;2024-03-02T11:13:42;14.00;1.00
15115;DHT22;7658;51.456;7.622;2024-03-02T11:16:34;14.30;1.00
15115;DHT22;7658;51.456;7.622;2024-03-02T11:19:10;14.20;1.00
15115;DHT22;7658;51.456;7.622;2024-03-02T11:21:38;14.00;1.00
15115;DHT22;7658;51.456;7.622;2024-03-02T11:26:51;14.00;1.00
15115;DHT22;7658;51.456;7.622;2024-03-02T11:32:02;14.40;1.00
15115;DHT22;7658;51.456;7.622;2024-03-02T11:34:32;14.70;1.00
15115;DHT22;7658;51.456;7.622;2024-03-02T11:36:59;14.90;1.00
15115;DHT22;7658;51.456;7.622;2024-03-02T11:39:28;15.10;1.00
15115;DHT22;7658;51.456;7.622;2024-03-02T11:41:55;15.00;1.00
15115;DHT22;7658;51.456;7.622;2024-03-02T11:44:21;15.30;1.00
15115;DHT22;7658;51.456;7.622;2024-03-02T11:47:00;15.20;1.00
15115;DHT22;7658;51.456;7.622;2024-03-02T11:52:06;15.60;1.00
15115;DHT22;7658;51.456;7.622;2024-03-02T11:54:33;15.80;1.00
15115;DHT22;7658;51.456;7.622;2024-03-02T11:57:03;16.10;1.00
15115;DHT22;7658;51.456;7.622;2024-03-02T11:59:30;16.40;1.00
15115;DHT22;7658;51.456;7.622;2024-03-02T12:01:58;16.50;1.00
15115;DHT22;7658;51.456;7.622;2024-03-02T12:04:25;16.60;1.00
15115;DHT22;7658;51.456;7.622;2024-03-02T12:06:59;16.70;1.00
15115;DHT22;7658;51.456;7.622;2024-03-02T12:09:29;16.60;1.00
15115;DHT22;7658;51.456;7.622;2024-03-02T12:12:10;16.50;1.00
15115;DHT22;7658;51.456;7.622;2024-03-02T12:14:38;16.40;1.00
15115;DHT22;7658;51.456;7.622;2024-03-02T12:17:05;16.60;1.00
15115;DHT22;7658;51.456;7.622;2024-03-02T12:19:32;16.80;1.00
15115;DHT22;7658;51.456;7.622;2024-03-02T12:21:59;17.00;1.00
15115;DHT22;7658;51.456;7.622;2024-03-02T12:24:30;17.10;1.00
15115;DHT22;7658;51.456;7.622;2024-03-02T12:26:57;17.20;1.00
15115;DHT22;7658;51.456;7.622;2024-03-02T12:29:23;16.70;1.00
15115;DHT22;7658;51.456;7.622;2024-03-02T12:31:50;16.60;1.00
15115;DHT22;7658;51.456;7.622;2024-03-02T12:34:18;16.80;1.00
15115;DHT22;7658;51.456;7.622;2024-03-02T12:36:44;17.20;1.00
15115;DHT22;7658;51.456;7.622;2024-03-02T12:39:13;17.60;1.00
15115;DHT22;7658;51.456;7.622;2024-03-02T12:41:39;17.80;1.00
15115;DHT22;7658;51.456;7.622;2024-03-02T12:44:05;17.90;1.00
15115;DHT22;7658;51.456;7.622;2024-03-02T12:46:32;17.80;1.00
15115;DHT22;7658;51.456;7.622;2024-03-02T12:49:04;17.70;1.00
15115;DHT22;7658;51.456;7.622;2024-03-02T12:51:30;17.50;1.00
15115;DHT22;7658;51.456;7.622;2024-03-02T12:53:57;17.60;1.00
15115;DHT22;7658;51.456;7.622;2024-03-02T12:56:24;16.90;1.00
15115;DHT22;7658;51.456;7.622;2024-03-02T12:58:58;16.60;1.00
15115;DHT22;7658;51.456;7.622;2024-03-02T13:01:24;16.40;1.00
15115;DHT22;7658;51.456;7.622;2024-03-02T13:03:50;16.70;1.00
15115;DHT22;7658;51.456;7.622;2024-03-02T13:06:21;16.70;1.00
15115;DHT22;7658;51.456;7.622;2024-03-02T13:08:47;17.10;1.00
15115;DHT22;7658;51.456;7.622;2024-03-02T13:11:13;17.20;1.00
15115;DHT22;7658;51.456;7.622;2024-03-02T13:13:42;16.90;1.00
15115;DHT22;7658;51.456;7.622;2024-03-02T13:16:11;16.70;1.00
15115;DHT22;7658;51.456;7.622;2024-03-02T13:18:41;16.60;1.00
15115;DHT22;7658;51.456;7.622;2024-03-02T13:21:08;16.20;1.00
15115;DHT22;7658;51.456;7.622;2024-03-02T13:23:34;15.90;1.00
15115;DHT22;7658;51.456;7.622;2024-03-02T13:26:00;15.30;1.00
15115;DHT22;7658;51.456;7.622;2024-03-02T13:28:26;15.20;1.00
15115;DHT22;7658;51.456;7.622;2024-03-02T13:30:52;15.00;1.00
15115;DHT22;7658;51.456;7.622;2024-03-02T13:33:18;14.90;1.00
15115;DHT22;7658;51.456;7.622;2024-03-02T13:35:51;14.90;1.00
15115;DHT22;7658;51.456;7.622;2024-03-02T13:38:18;14.90;1.00
15115;DHT22;7658;51.456;7.622;2024-03-02T13:40:45;14.90;1.00
15115;DHT22;7658;51.456;7.622;2024-03-02T13:43:11;14.90;1.00
15115;DHT22;7658;51.456;7.622;2024-03-02T13:45:38;15.00;1.00
15115;DHT22;7658;51.456;7.622;2024-03-02T13:48:04;15.00;1.00
15115;DHT22;7658;51.456;7.622;2024-03-02T13:50:31;14.80;1.00
15115;DHT22;7658;51.456;7.622;2024-03-02T13:52:57;15.00;1.00
15115;DHT22;7658;51.456;7.622;2024-03-02T13:55:23;15.00;1.00
15115;DHT22;7658;51.456;7.622;2024-03-02T13:57:49;14.90;1.00
15115;DHT22;7658;51.456;7.622;2024-03-02T14:00:18;14.90;1.00
15115;DHT22;7658;51.456;7.622;2024-03-02T14:02:45;14.90;1.00
15115;DHT22;7658;51.456;7.622;2024-03-02T14:05:12;14.80;1.00
15115;DHT22;7658;51.456;7.622;2024-03-02T14:07:40;14.80;1.00
15115;DHT22;7658;51.456;7.622;2024-03-02T14:10:06;14.80;1.00
15115;DHT22;7658;51.456;7.622;2024-03-02T14:12:32;14.80;1.00
15115;DHT22;7658;51.456;7.622;2024-03-02T14:14:58;14.80;1.00
15115;DHT22;7658;51.456;7.622;2024-03-02T14:17:25;14.80;1.00
15115;DHT22;7658;51.456;7.622;2024-03-02T14:19:51;14.90;1.00
15115;DHT22;7658;51.456;7.622;2024-03-02T14:22:19;14.90;1.00
15115;DHT22;7658;51.456;7.622;2024-03-02T14:24:45;15.10;1.00
15115;DHT22;7658;51.456;7.622;2024-03-02T14:27:11;15.10;1.00
15115;DHT22;7658;51.456;7.622;2024-03-02T14:29:39;15.30;1.00
15115;DHT22;7658;51.456;7.622;2024-03-02T14:32:06;15.30;1.00
15115;DHT22;7658;51.456;7.622;2024-03-02T14:34:32;15.10;1.00
15115;DHT22;7658;51.456;7.622;2024-03-02T14:36:58;15.10;1.00
15115;DHT22;7658;51.456;7.622;2024-03-02T14:39:28;15.10;1.00
15115;DHT22;7658;51.456;7.622;2024-03-02T14:41:54;15.10;1.00
15115;DHT22;7658;51.456;7.622;2024-03-02T14:44:21;15.30;1.00
15115;DHT22;7658;51.456;7.622;2024-03-02T14:46:47;15.50;1.00
15115;DHT22;7658;51.456;7.622;2024-03-02T14:49:13;15.60;1.00
15115;DHT22;7658;51.456;7.622;2024-03-02T14:51:39;15.70;1.00
15115;DHT22;7658;51.456;7.622;2024-03-02T14:54:06;15.80;1.00
15115;DHT22;7658;51.456;7.622;2024-03-02T14:56:32;15.90;1.00
15115;DHT22;7658;51.456;7.622;2024-03-02T14:58:57;15.80;1.00
15115;DHT22;7658;51.456;7.622;2024-03-02T15:01:23;15.60;1.00
15115;DHT22;7658;51.456;7.622;2024-03-02T15:03:52;15.40;1.00
15115;DHT22;7658;51.456;7.622;2024-03-02T15:06:19;15.30;1.00
15115;DHT22;7658;51.456;7.622;2024-03-02T15:08:45;15.30;1.00
15115;DHT22;7658;51.456;7.622;2024-03-02T15:11:14;15.30;1.00
15115;DHT22;7658;51.456;7.622;2024-03-02T15:13:40;15.30;1.00
15115;DHT22;7658;51.456;7.622;2024-03-02T15:16:07;15.10;1.00
15115;DHT22;7658;51.456;7.622;2024-03-02T15:18:33;15.10;1.00
15115;DHT22;7658;51.456;7.622;2024-03-02T15:21:01;15.00;1.00
15115;DHT22;7658;51.456;7.622;2024-03-02T15:23:28;15.00;1.00
15115;DHT22;7658;51.456;7.622;2024-03-02T15:25:56;15.00;1.00
15115;DHT22;7658;51.456;7.622;2024-03-02T15:28:23;14.90;1.00
15115;DHT22;7658;51.456;7.622;2024-03-02T15:30:49;14.90;1.00
15115;DHT22;7658;51.456;7.622;2024-03-02T15:33:15;14.90;1.00
15115;DHT22;7658;51.456;7.622;2024-03-02T15:35:43;14.90;1.00
15115;DHT22;7658;51.456;7.622;2024-03-02T15:38:09;14.90;1.00
15115;DHT22;7658;51.456;7.622;2024-03-02T15:40:40;14.90;1.00
15115;DHT22;7658;51.456;7.622;2024-03-02T15:43:07;14.90;1.00
15115;DHT22;7658;51.456;7.622;2024-03-02T15:45:33;14.80;1.00
15115;DHT22;7658;51.456;7.622;2024-03-02T15:48:00;14.70;1.00
15115;DHT22;7658;51.456;7.622;2024-03-02T15:50:27;14.60;1.00
15115;DHT22;7658;51.456;7.622;2024-03-02T15:52:54;14.50;1.00
15115;DHT22;7658;51.456;7.622;2024-03-02T15:55:23;14.40;1.00
15115;DHT22;7658;51.456;7.622;2024-03-02T15:57:50;14.30;1.00
15115;DHT22;7658;51.456;7.622;2024-03-02T16:00:18;14.20;1.00
15115;DHT22;7658;51.456;7.622;2024-03-02T16:02:44;14.10;1.00
15115;DHT22;7658;51.456;7.622;2024-03-02T16:05:10;14.10;1.00
15115;DHT22;7658;51.456;7.622;2024-03-02T16:07:37;14.10;1.00
15115;DHT22;7658;51.456;7.622;2024-03-02T16:10:05;14.00;1.00
15115;DHT22;7658;51.456;7.622;2024-03-02T16:12:33;14.00;1.00
15115;DHT22;7658;51.456;7.622;2024-03-02T16:15:00;14.00;1.00
15115;DHT22;7658;51.456;7.622;2024-03-02T16:17:26;13.90;1.00
15115;DHT22;7658;51.456;7.622;2024-03-02T16:19:52;13.90;1.00